Time;durP1;ratioP1;P1;durP2;ratioP2;P2;SDS_P1;SDS_P2;PMS_P1;PMS_P2;Temp;Humidity;BMP_temperature;BMP_pressure;BME280_temperature;BME280_humidity;BME280_pressure;Samples;Min_cycle;Max_cycle;Signal;HPM_P1;HPM_P2
2022/02/27 00:01:48;;;;;;;10.82;4.35;;;3.80;95.70;;;;;;4860966;29;20548;-93
2022/02/27 00:04:14;;;;;;;8.40;3.72;;;3.70;95.80;;;;;;4860657;29;20022;-92
2022/02/27 00:06:39;;;;;;;14.27;3.30;;;3.70;95.90;;;;;;4860153;29;20144;-92
2022/02/27 00:09:05;;;;;;;11.52;3.20;;;3.70;96.00;;;;;;4860311;29;20025;-92
2022/02/27 00:11:32;;;;;;;6.95;2.35;;;3.70;96.10;;;;;;4862176;29;20033;-95
2022/02/27 00:13:58;;;;;;;6.03;2.67;;;3.60;96.20;;;;;;4863418;29;20098;-94
2022/02/27 00:16:23;;;;;;;12.63;3.67;;;3.60;96.40;;;;;;4863106;29;20034;-93
2022/02/27 00:18:49;;;;;;;5.10;2.70;;;3.60;96.60;;;;;;4861924;29;20105;-90
2022/02/27 00:21:15;;;;;;;11.52;3.45;;;3.60;96.70;;;;;;4861803;29;20124;-92
2022/02/27 00:23:40;;;;;;;13.48;3.05;;;3.50;96.90;;;;;;4860950;29;20076;-91
2022/02/27 00:26:06;;;;;;;17.05;3.00;;;3.50;97.00;;;;;;4860311;29;20034;-91
2022/02/27 00:28:32;;;;;;;9.38;2.80;;;3.50;97.10;;;;;;4860026;29;20033;-91
2022/02/27 00:30:58;;;;;;;9.75;3.33;;;3.40;97.10;;;;;;4860714;29;20025;-91
2022/02/27 00:33:23;;;;;;;10.20;3.22;;;3.40;97.20;;;;;;4861715;29;20066;-91
2022/02/27 00:35:49;;;;;;;10.38;3.30;;;3.40;97.40;;;;;;4863169;29;20021;-92
2022/02/27 00:38:16;;;;;;;19.20;4.13;;;3.40;97.50;;;;;;4864810;29;20045;-94
2022/02/27 00:40:41;;;;;;;14.95;3.80;;;3.30;97.60;;;;;;4864935;29;20510;-92
2022/02/27 00:43:07;;;;;;;7.22;2.65;;;3.30;97.80;;;;;;4865440;29;20033;-91
2022/02/27 00:45:33;;;;;;;12.65;3.58;;;3.30;97.90;;;;;;4871148;29;20448;-92
2022/02/27 00:47:59;;;;;;;14.48;3.10;;;3.30;98.00;;;;;;4879276;29;20173;-91
2022/02/27 00:50:24;;;;;;;17.05;3.90;;;3.20;98.10;;;;;;4877081;29;20052;-91
2022/02/27 00:52:50;;;;;;;10.13;3.22;;;3.20;98.30;;;;;;4873727;29;20029;-93
2022/02/27 00:55:16;;;;;;;17.73;5.05;;;3.20;98.50;;;;;;4881130;29;20089;-92
2022/02/27 00:57:43;;;;;;;9.45;3.80;;;3.10;98.60;;;;;;4885639;29;20056;-91
2022/02/27 01:00:09;;;;;;;12.45;4.18;;;3.10;98.80;;;;;;4887193;29;20033;-92
2022/02/27 01:02:35;;;;;;;10.23;3.15;;;3.10;98.90;;;;;;4886308;29;20093;-93
2022/02/27 01:05:01;;;;;;;10.55;3.30;;;3.10;99.10;;;;;;4888105;29;20045;-90
2022/02/27 01:07:27;;;;;;;14.90;3.60;;;3.10;99.30;;;;;;4877843;29;20089;-91
2022/02/27 01:09:53;;;;;;;13.35;3.80;;;3.00;99.40;;;;;;4876201;29;20029;-91
2022/02/27 01:12:19;;;;;;;10.35;3.72;;;3.00;99.60;;;;;;4876219;29;20044;-92
2022/02/27 01:14:46;;;;;;;12.50;3.50;;;3.00;99.80;;;;;;4872009;29;20034;-92
2022/02/27 01:17:12;;;;;;;11.68;3.13;;;3.00;99.90;;;;;;4875499;29;20040;-92
2022/02/27 01:19:38;;;;;;;9.85;3.30;;;3.00;99.90;;;;;;4872521;29;20029;-92
2022/02/27 01:22:04;;;;;;;10.10;3.45;;;3.00;99.90;;;;;;4870496;29;20468;-92
2022/02/27 01:24:30;;;;;;;9.90;4.03;;;3.00;99.90;;;;;;4876658;29;20025;-93
2022/02/27 01:26:56;;;;;;;13.13;3.95;;;3.00;99.90;;;;;;4879185;29;20045;-93
2022/02/27 01:29:22;;;;;;;9.38;3.85;;;3.00;99.90;;;;;;4873722;29;20033;-91
2022/02/27 01:31:48;;;;;;;15.23;3.83;;;3.00;99.90;;;;;;4871351;29;20062;-92
2022/02/27 01:34:13;;;;;;;12.45;3.97;;;3.00;99.90;;;;;;4872437;29;20025;-92
2022/02/27 01:36:39;;;;;;;9.00;3.05;;;3.00;99.90;;;;;;4871625;29;20029;-91
2022/02/27 01:39:05;;;;;;;6.65;3.35;;;3.00;99.90;;;;;;4869061;29;20029;-91
2022/02/27 01:41:31;;;;;;;9.68;3.17;;;3.00;99.90;;;;;;4864845;29;20033;-92
2022/02/27 01:43:57;;;;;;;11.77;4.10;;;3.00;99.90;;;;;;4862797;29;20061;-93
2022/02/27 01:46:22;;;;;;;8.55;3.25;;;3.00;99.90;;;;;;4868595;29;20030;-93
2022/02/27 01:48:48;;;;;;;12.50;3.53;;;2.90;99.90;;;;;;4871319;29;20093;-91
2022/02/27 01:51:14;;;;;;;13.98;3.50;;;2.90;99.90;;;;;;4871520;29;20033;-92
2022/02/27 01:53:41;;;;;;;8.85;3.15;;;2.90;99.90;;;;;;4871897;29;20165;-90
2022/02/27 01:56:07;;;;;;;7.90;3.20;;;2.90;99.90;;;;;;4869002;29;20033;-92
2022/02/27 01:58:33;;;;;;;12.02;3.63;;;2.80;99.90;;;;;;4862340;29;20112;-92
2022/02/27 02:00:59;;;;;;;14.90;3.75;;;2.70;99.90;;;;;;4862231;29;20045;-92
2022/02/27 02:03:26;;;;;;;14.93;5.35;;;2.70;99.90;;;;;;4862503;29;20029;-92
2022/02/27 02:05:53;;;;;;;15.05;3.65;;;2.60;99.90;;;;;;4861997;29;20480;-92
2022/02/27 02:08:19;;;;;;;13.48;4.47;;;2.60;99.90;;;;;;4861990;29;20033;-92
2022/02/27 02:10:45;;;;;;;10.77;4.50;;;2.60;99.90;;;;;;4863368;29;20036;-92
2022/02/27 02:13:11;;;;;;;12.93;3.42;;;2.70;99.90;;;;;;4861868;29;20415;-91
2022/02/27 02:15:37;;;;;;;11.68;4.13;;;2.60;99.90;;;;;;4862039;29;20036;-91
2022/02/27 02:18:06;;;;;;;9.38;3.50;;;2.60;99.90;;;;;;4861837;29;20033;-93
2022/02/27 02:20:32;;;;;;;7.35;3.90;;;2.60;99.90;;;;;;4861233;29;20052;-92
2022/02/27 02:22:58;;;;;;;13.57;3.72;;;2.60;99.90;;;;;;4861662;29;20026;-91
2022/02/27 02:25:24;;;;;;;14.15;4.63;;;2.50;99.90;;;;;;4861902;29;20624;-91
2022/02/27 02:27:50;;;;;;;15.43;3.90;;;2.50;99.90;;;;;;4861573;29;20041;-92
2022/02/27 02:30:16;;;;;;;12.38;3.88;;;2.40;99.90;;;;;;4861810;29;20040;-89
2022/02/27 02:32:49;;;;;;;10.15;4.07;;;2.50;99.90;;;;;;4861666;29;20081;-90
2022/02/27 02:35:15;;;;;;;10.95;3.95;;;2.40;99.90;;;;;;4861362;29;20034;-92
2022/02/27 02:37:41;;;;;;;14.98;3.90;;;2.40;99.90;;;;;;4861364;29;20036;-90
2022/02/27 02:40:07;;;;;;;16.23;4.10;;;2.50;99.90;;;;;;4861793;29;20037;-91
2022/02/27 02:42:42;;;;;;;18.33;5.75;;;2.40;99.90;;;;;;4861461;29;20025;-91
2022/02/27 02:45:08;;;;;;;11.75;3.97;;;2.40;99.90;;;;;;4861665;29;20034;-91
2022/02/27 02:47:34;;;;;;;15.88;4.80;;;2.40;99.90;;;;;;4861293;29;20048;-91
2022/02/27 02:49:59;;;;;;;15.45;4.72;;;2.40;99.90;;;;;;4861554;29;20112;-91
2022/02/27 02:52:25;;;;;;;14.20;4.43;;;2.40;99.90;;;;;;4869642;29;20064;-92
2022/02/27 02:54:51;;;;;;;14.85;4.05;;;2.40;99.90;;;;;;4868748;29;20053;-92
2022/02/27 02:57:17;;;;;;;11.23;3.72;;;2.30;99.90;;;;;;4862234;29;20068;-92
2022/02/27 02:59:43;;;;;;;11.13;3.67;;;2.40;99.90;;;;;;4861597;29;20033;-92
2022/02/27 03:02:09;;;;;;;11.48;4.07;;;2.40;99.90;;;;;;4861232;29;20061;-93
2022/02/27 03:04:36;;;;;;;12.38;4.07;;;2.40;99.90;;;;;;4861165;29;20057;-92
2022/02/27 03:07:02;;;;;;;15.32;5.00;;;2.30;99.90;;;;;;4861064;29;20486;-93
2022/02/27 03:09:28;;;;;;;12.45;3.45;;;2.40;99.90;;;;;;4861139;29;20540;-92
2022/02/27 03:11:54;;;;;;;17.48;4.30;;;2.40;99.90;;;;;;4861763;29;20034;-91
2022/02/27 03:14:19;;;;;;;14.27;4.45;;;2.30;99.90;;;;;;4861312;29;20465;-91
2022/02/27 03:16:45;;;;;;;10.32;3.95;;;2.30;99.90;;;;;;4861030;29;20125;-92
2022/02/27 03:19:11;;;;;;;15.98;4.53;;;2.30;99.90;;;;;;4860769;29;20029;-92
2022/02/27 03:21:38;;;;;;;14.52;4.63;;;2.30;99.90;;;;;;4861343;29;20218;-93
2022/02/27 03:24:04;;;;;;;14.68;3.75;;;2.30;99.90;;;;;;4862022;29;20064;-91
2022/02/27 03:26:30;;;;;;;9.23;3.95;;;2.30;99.90;;;;;;4861818;29;20130;-93
2022/02/27 03:28:55;;;;;;;9.45;4.20;;;2.30;99.90;;;;;;4861068;29;20056;-92
2022/02/27 03:31:21;;;;;;;9.52;3.58;;;2.20;99.90;;;;;;4861103;29;20030;-92
2022/02/27 03:33:48;;;;;;;12.93;3.40;;;2.10;99.90;;;;;;4861026;29;20052;-92
2022/02/27 03:36:13;;;;;;;13.60;3.95;;;2.20;99.90;;;;;;4860647;29;20033;-93
2022/02/27 03:38:40;;;;;;;13.13;4.38;;;2.10;99.90;;;;;;4860483;29;20033;-93
2022/02/27 03:41:05;;;;;;;12.35;4.05;;;2.10;99.90;;;;;;4860795;29;20484;-93
2022/02/27 03:43:31;;;;;;;12.27;4.03;;;2.10;99.90;;;;;;4860587;29;20033;-92
2022/02/27 03:45:57;;;;;;;17.05;4.25;;;2.10;99.90;;;;;;4860762;29;20038;-92
2022/02/27 03:48:23;;;;;;;17.70;4.15;;;2.00;99.90;;;;;;4860790;29;20049;-94
2022/02/27 03:50:48;;;;;;;15.70;4.80;;;2.00;99.90;;;;;;4860916;29;20492;-93
2022/02/27 03:53:14;;;;;;;11.95;3.80;;;2.00;99.90;;;;;;4861153;29;20061;-93
2022/02/27 03:55:39;;;;;;;15.15;4.05;;;2.00;99.90;;;;;;4860992;29;20034;-91
2022/02/27 03:58:05;;;;;;;10.90;4.45;;;2.00;99.90;;;;;;4860874;29;20129;-91
2022/02/27 04:00:31;;;;;;;11.98;3.88;;;1.90;99.90;;;;;;4861391;29;20025;-91
2022/02/27 04:02:57;;;;;;;12.35;4.07;;;1.90;99.90;;;;;;4861095;29;20044;-91
2022/02/27 04:05:22;;;;;;;12.05;4.15;;;1.90;99.90;;;;;;4861119;29;20021;-91
2022/02/27 04:07:48;;;;;;;11.73;4.60;;;1.90;99.90;;;;;;4860626;29;20185;-91
2022/02/27 04:10:14;;;;;;;11.68;3.97;;;1.80;99.90;;;;;;4863449;29;20420;-92
2022/02/27 04:12:42;;;;;;;14.05;3.88;;;1.80;99.90;;;;;;4864445;29;20044;-91
2022/02/27 04:15:08;;;;;;;10.50;3.58;;;1.80;99.90;;;;;;4864754;29;20044;-93
2022/02/27 04:17:34;;;;;;;18.13;4.22;;;1.80;99.90;;;;;;4865482;29;20033;-92
2022/02/27 04:20:00;;;;;;;11.95;3.90;;;1.80;99.90;;;;;;4865290;29;20041;-92
2022/02/27 04:22:27;;;;;;;11.02;3.33;;;1.80;99.90;;;;;;4864898;29;20022;-92
2022/02/27 04:24:52;;;;;;;12.85;4.18;;;1.80;99.90;;;;;;4866910;29;20558;-94
2022/02/27 04:27:18;;;;;;;16.65;4.00;;;1.70;99.90;;;;;;4868789;29;20076;-93
2022/02/27 04:29:45;;;;;;;13.27;3.78;;;1.70;99.90;;;;;;4875207;29;20030;-92
2022/02/27 04:32:11;;;;;;;7.10;3.95;;;1.70;99.90;;;;;;4875202;29;20057;-92
2022/02/27 04:34:37;;;;;;;8.80;4.07;;;1.70;99.90;;;;;;4874170;29;20154;-92
2022/02/27 04:37:03;;;;;;;9.35;3.53;;;1.70;99.90;;;;;;4871897;29;20033;-91
2022/02/27 04:39:32;;;;;;;13.77;3.75;;;1.70;99.90;;;;;;4871358;29;20040;-91
2022/02/27 04:41:58;;;;;;;13.05;4.00;;;1.70;99.90;;;;;;4866641;29;20037;-94
2022/02/27 04:44:23;;;;;;;13.75;4.25;;;1.70;99.90;;;;;;4868573;29;20487;-93
2022/02/27 04:46:49;;;;;;;10.70;4.50;;;1.70;99.90;;;;;;4874294;29;20472;-92
2022/02/27 04:49:15;;;;;;;10.38;3.95;;;1.70;99.90;;;;;;4866678;29;20093;-92
2022/02/27 04:51:40;;;;;;;11.13;4.40;;;1.80;99.90;;;;;;4867899;29;20097;-92
2022/02/27 04:54:06;;;;;;;11.10;4.65;;;1.70;99.90;;;;;;4864635;29;20488;-92
2022/02/27 04:56:32;;;;;;;12.75;3.90;;;1.70;99.90;;;;;;4872435;29;20030;-91
2022/02/27 04:58:57;;;;;;;11.38;4.40;;;1.70;99.90;;;;;;4876476;29;20096;-92
2022/02/27 05:01:23;;;;;;;13.50;4.30;;;1.80;99.90;;;;;;4877005;29;20029;-92
2022/02/27 05:03:49;;;;;;;9.82;3.95;;;1.80;99.90;;;;;;4878143;29;20025;-86
2022/02/27 05:06:14;;;;;;;12.68;3.53;;;1.80;99.90;;;;;;4885826;29;20013;-85
2022/02/27 05:08:40;;;;;;;15.63;3.60;;;1.90;99.90;;;;;;4885660;29;20045;-89
2022/02/27 05:11:06;;;;;;;17.80;4.07;;;1.80;99.90;;;;;;4880994;29;20177;-93
2022/02/27 05:13:32;;;;;;;14.75;4.35;;;1.90;99.90;;;;;;4871858;29;20086;-94
2022/02/27 05:15:59;;;;;;;9.70;3.22;;;1.80;99.90;;;;;;4870038;29;20140;-93
2022/02/27 05:18:24;;;;;;;11.43;4.50;;;1.90;99.90;;;;;;4869237;29;20030;-93
2022/02/27 05:20:50;;;;;;;11.02;4.18;;;1.90;99.90;;;;;;4869317;29;20109;-93
2022/02/27 05:23:16;;;;;;;28.55;6.50;;;1.90;99.90;;;;;;4865779;29;20158;-93
2022/02/27 05:25:42;;;;;;;20.58;4.45;;;1.90;99.90;;;;;;4865024;29;20036;-92
2022/02/27 05:28:07;;;;;;;14.57;4.25;;;1.90;99.90;;;;;;4863753;29;20037;-91
2022/02/27 05:30:33;;;;;;;11.82;4.18;;;1.90;99.90;;;;;;4863207;29;20037;-91
2022/02/27 05:32:59;;;;;;;16.73;5.15;;;1.90;99.90;;;;;;4864455;29;20092;-92
2022/02/27 05:35:24;;;;;;;8.45;3.88;;;1.90;99.90;;;;;;4864718;29;20506;-92
2022/02/27 05:37:50;;;;;;;10.90;4.10;;;1.80;99.90;;;;;;4864518;29;20120;-91
2022/02/27 05:40:16;;;;;;;13.95;4.40;;;1.90;99.90;;;;;;4864328;29;20097;-91
2022/02/27 05:42:42;;;;;;;20.30;4.68;;;1.80;99.90;;;;;;4864697;29;20029;-93
2022/02/27 05:45:08;;;;;;;18.77;4.63;;;1.80;99.90;;;;;;4864578;29;20120;-93
2022/02/27 05:47:34;;;;;;;17.70;4.63;;;1.80;99.90;;;;;;4863858;29;20041;-93
2022/02/27 05:50:00;;;;;;;16.27;5.00;;;1.80;99.90;;;;;;4863895;29;20093;-92
2022/02/27 05:52:25;;;;;;;13.55;4.20;;;1.80;99.90;;;;;;4864029;29;20433;-93
2022/02/27 05:54:51;;;;;;;13.90;4.90;;;1.90;99.90;;;;;;4868955;29;20025;-92
2022/02/27 05:57:17;;;;;;;14.38;4.32;;;1.90;99.90;;;;;;4867190;29;20077;-93
2022/02/27 05:59:43;;;;;;;11.40;4.32;;;2.00;99.90;;;;;;4863925;29;20037;-93
2022/02/27 06:02:08;;;;;;;14.82;4.75;;;2.00;99.90;;;;;;4863264;29;20396;-92
2022/02/27 06:04:34;;;;;;;15.73;4.25;;;2.00;99.90;;;;;;4863378;29;20567;-92
2022/02/27 06:07:00;;;;;;;17.90;5.57;;;1.90;99.90;;;;;;4878896;29;20377;-93
2022/02/27 06:09:26;;;;;;;9.25;4.05;;;1.90;99.90;;;;;;4869504;29;20395;-90
2022/02/27 06:11:52;;;;;;;13.65;4.63;;;1.90;99.90;;;;;;4874577;29;20501;-91
2022/02/27 06:14:17;;;;;;;12.32;4.40;;;1.80;99.90;;;;;;4869101;29;20045;-91
2022/02/27 06:16:43;;;;;;;13.77;4.60;;;1.80;99.90;;;;;;4870142;29;20029;-91
2022/02/27 06:19:09;;;;;;;20.85;4.88;;;1.70;99.90;;;;;;4871517;29;20029;-91
2022/02/27 06:21:34;;;;;;;16.17;5.60;;;1.70;99.90;;;;;;4869669;29;20056;-90
2022/02/27 06:24:00;;;;;;;15.98;5.35;;;1.70;99.90;;;;;;4869653;29;20044;-91
2022/02/27 06:26:26;;;;;;;13.68;3.80;;;1.70;99.90;;;;;;4869850;29;20032;-90
2022/02/27 06:28:51;;;;;;;15.32;5.03;;;1.60;99.90;;;;;;4871036;29;20033;-91
2022/02/27 06:31:17;;;;;;;19.50;5.63;;;1.60;99.90;;;;;;4869513;29;20026;-91
2022/02/27 06:33:44;;;;;;;19.73;5.82;;;1.60;99.90;;;;;;4868966;29;20025;-92
2022/02/27 06:36:10;;;;;;;15.25;5.72;;;1.50;99.90;;;;;;4870790;29;20017;-92
2022/02/27 06:38:36;;;;;;;12.60;4.18;;;1.50;99.90;;;;;;4868399;29;20056;-92
2022/02/27 06:41:03;;;;;;;17.17;4.53;;;1.40;99.90;;;;;;4870964;29;20036;-91
2022/02/27 06:43:32;;;;;;;17.52;4.28;;;1.40;99.90;;;;;;4883355;29;20033;-92
2022/02/27 06:45:59;;;;;;;21.70;5.63;;;1.40;99.90;;;;;;4875913;29;20487;-93
2022/02/27 06:48:24;;;;;;;23.17;4.78;;;1.40;99.90;;;;;;4873168;29;20042;-92
2022/02/27 06:50:50;;;;;;;15.35;4.82;;;1.30;99.90;;;;;;4873020;29;20033;-92
2022/02/27 06:53:16;;;;;;;15.52;5.05;;;1.30;99.90;;;;;;4870543;29;20040;-91
2022/02/27 06:55:42;;;;;;;16.15;5.32;;;1.30;99.90;;;;;;4869837;29;20052;-90
2022/02/27 06:58:07;;;;;;;14.05;4.45;;;1.30;99.90;;;;;;4870123;29;20227;-92
2022/02/27 07:00:33;;;;;;;17.13;4.68;;;1.30;99.90;;;;;;4870047;29;20057;-92
2022/02/27 07:02:59;;;;;;;17.33;5.05;;;1.20;99.90;;;;;;4867276;29;20555;-91
2022/02/27 07:05:24;;;;;;;12.35;4.53;;;1.20;99.90;;;;;;4869653;29;20369;-91
2022/02/27 07:07:50;;;;;;;17.98;5.25;;;1.20;99.90;;;;;;4870574;29;20549;-92
2022/02/27 07:10:16;;;;;;;19.10;5.22;;;1.20;99.90;;;;;;4879315;29;20029;-91
2022/02/27 07:12:44;;;;;;;19.38;6.22;;;1.20;99.90;;;;;;4879303;29;20044;-91
2022/02/27 07:15:10;;;;;;;18.48;4.75;;;1.20;99.90;;;;;;4879543;29;20040;-90
2022/02/27 07:17:35;;;;;;;17.67;5.93;;;1.20;99.90;;;;;;4879814;29;20104;-91
2022/02/27 07:20:01;;;;;;;15.15;4.60;;;1.20;99.90;;;;;;4879692;29;20128;-92
2022/02/27 07:22:27;;;;;;;17.55;5.00;;;1.20;99.90;;;;;;4879799;29;20040;-92
2022/02/27 07:24:54;;;;;;;16.13;5.50;;;1.20;99.90;;;;;;4880093;29;20033;-93
2022/02/27 07:27:20;;;;;;;16.05;5.65;;;1.20;99.90;;;;;;4879777;29;20045;-94
2022/02/27 07:29:46;;;;;;;22.17;5.45;;;1.20;99.90;;;;;;4879536;29;20097;-93
2022/02/27 07:32:11;;;;;;;18.55;5.10;;;1.20;99.90;;;;;;4880450;29;20081;-92
2022/02/27 07:34:41;;;;;;;20.77;5.78;;;1.20;99.90;;;;;;4884826;29;20033;-92
2022/02/27 07:37:07;;;;;;;19.75;5.20;;;1.20;99.90;;;;;;4883011;29;20025;-91
2022/02/27 07:39:33;;;;;;;12.82;4.82;;;1.20;99.90;;;;;;4883827;29;20029;-92
2022/02/27 07:41:58;;;;;;;16.17;6.10;;;1.20;99.90;;;;;;4878084;29;20029;-93
2022/02/27 07:44:25;;;;;;;16.85;4.57;;;1.20;99.90;;;;;;4905368;29;20032;-94
2022/02/27 07:46:51;;;;;;;13.50;4.63;;;1.20;99.90;;;;;;4881779;29;20154;-94
2022/02/27 07:49:18;;;;;;;21.20;6.28;;;1.20;99.90;;;;;;4882701;29;20041;-93
2022/02/27 07:51:43;;;;;;;17.55;5.18;;;1.20;99.90;;;;;;4883868;29;20034;-94
2022/02/27 07:54:11;;;;;;;15.18;5.22;;;1.20;99.90;;;;;;4883410;29;20037;-93
2022/02/27 07:56:36;;;;;;;14.65;5.38;;;1.20;99.90;;;;;;4879535;29;20040;-93
2022/02/27 07:59:02;;;;;;;19.15;5.18;;;1.20;99.90;;;;;;4881831;29;20037;-93
2022/02/27 08:01:29;;;;;;;25.38;5.60;;;1.20;99.90;;;;;;4911095;29;20045;-90
2022/02/27 08:03:58;;;;;;;16.67;6.47;;;1.20;99.90;;;;;;4889563;29;20108;-92
2022/02/27 08:06:24;;;;;;;11.85;4.55;;;1.20;99.90;;;;;;4890673;29;20033;-93
2022/02/27 08:08:50;;;;;;;13.10;5.30;;;1.20;99.90;;;;;;4888370;29;20069;-90
2022/02/27 08:11:16;;;;;;;17.75;4.68;;;1.30;99.90;;;;;;4886028;29;20029;-93
2022/02/27 08:13:42;;;;;;;15.65;5.53;;;1.30;99.90;;;;;;4887097;29;20069;-93
2022/02/27 08:16:08;;;;;;;13.98;5.05;;;1.30;99.90;;;;;;4883585;29;20023;-90
2022/02/27 08:18:34;;;;;;;17.40;4.82;;;1.30;99.90;;;;;;4885178;29;20026;-93
2022/02/27 08:21:00;;;;;;;16.73;4.72;;;1.40;99.90;;;;;;4881467;29;20025;-93
2022/02/27 08:23:26;;;;;;;18.33;4.80;;;1.40;99.90;;;;;;4878665;29;20033;-93
2022/02/27 08:25:53;;;;;;;16.25;4.65;;;1.50;99.90;;;;;;4879167;29;20109;-92
2022/02/27 08:28:22;;;;;;;16.77;4.90;;;1.50;99.90;;;;;;4883010;29;20041;-94
2022/02/27 08:30:48;;;;;;;12.90;4.40;;;1.60;99.90;;;;;;4902255;29;20117;-92
2022/02/27 08:33:14;;;;;;;22.45;4.72;;;1.60;99.90;;;;;;4878840;29;20105;-94
2022/02/27 08:35:41;;;;;;;22.00;5.13;;;1.70;99.90;;;;;;4890458;29;20029;-92
2022/02/27 08:38:07;;;;;;;15.10;4.75;;;1.80;99.90;;;;;;4884925;29;20183;-94
2022/02/27 08:40:32;;;;;;;20.17;5.20;;;1.80;99.90;;;;;;4877200;29;20029;-91
2022/02/27 08:43:01;;;;;;;15.18;4.82;;;1.80;99.90;;;;;;4877394;29;20033;-94
2022/02/27 08:45:30;;;;;;;11.90;4.72;;;1.90;99.90;;;;;;4886001;29;20025;-92
2022/02/27 08:47:56;;;;;;;13.73;4.78;;;2.00;99.90;;;;;;4881778;29;20476;-92
2022/02/27 08:50:22;;;;;;;16.10;5.53;;;2.00;99.90;;;;;;4880578;29;20025;-94
2022/02/27 08:52:49;;;;;;;20.15;4.88;;;2.10;99.90;;;;;;4878581;29;20049;-93
2022/02/27 08:55:15;;;;;;;20.40;5.25;;;2.20;99.90;;;;;;4877532;29;20038;-93
2022/02/27 08:57:45;;;;;;;14.98;4.97;;;2.20;99.90;;;;;;4872545;29;20029;-92
2022/02/27 09:00:12;;;;;;;15.75;4.20;;;2.30;99.90;;;;;;4873442;29;20033;-93
2022/02/27 09:02:38;;;;;;;18.88;5.03;;;2.40;99.90;;;;;;4885444;29;20025;-91
2022/02/27 09:05:05;;;;;;;17.48;4.38;;;2.50;99.90;;;;;;4884589;29;20029;-91
2022/02/27 09:07:32;;;;;;;13.85;4.40;;;2.50;99.90;;;;;;4884551;29;20045;-91
2022/02/27 09:09:58;;;;;;;19.70;5.10;;;2.50;99.90;;;;;;4884236;29;20037;-93
2022/02/27 09:12:24;;;;;;;18.48;5.78;;;2.60;99.90;;;;;;4875433;29;20061;-93
2022/02/27 09:19:42;;;;;;;12.25;3.33;;;2.80;99.90;;;;;;4864565;29;20041;-93
2022/02/27 09:22:08;;;;;;;20.83;5.78;;;2.90;99.90;;;;;;4873681;29;20056;-93
2022/02/27 09:24:34;;;;;;;11.32;3.58;;;2.90;99.90;;;;;;4877041;29;20033;-93
2022/02/27 09:27:00;;;;;;;14.52;4.40;;;3.00;99.90;;;;;;4874581;29;20048;-93
2022/02/27 09:29:26;;;;;;;18.95;4.72;;;3.10;99.90;;;;;;4874865;29;20089;-96
2022/02/27 09:31:51;;;;;;;9.85;3.83;;;3.20;99.90;;;;;;4875623;29;20440;-95
2022/02/27 09:34:17;;;;;;;17.92;4.63;;;3.20;99.90;;;;;;4873047;29;20516;-93
2022/02/27 09:36:43;;;;;;;10.25;4.20;;;3.30;99.90;;;;;;4872901;29;20097;-94
2022/02/27 09:39:09;;;;;;;18.85;4.03;;;3.40;99.90;;;;;;4877486;29;20106;-93
2022/02/27 09:41:35;;;;;;;9.50;4.20;;;3.50;99.90;;;;;;4877315;29;20029;-93
2022/02/27 09:44:06;;;;;;;14.68;4.38;;;3.50;99.90;;;;;;4879323;29;20033;-93
2022/02/27 09:46:32;;;;;;;17.45;4.25;;;3.70;99.90;;;;;;4884119;29;20037;-94
2022/02/27 09:48:59;;;;;;;14.07;4.63;;;3.70;99.90;;;;;;4885136;29;20018;-94
2022/02/27 09:51:26;;;;;;;14.80;3.72;;;3.90;99.90;;;;;;4885194;29;20032;-94
2022/02/27 09:53:55;;;;;;;11.02;3.90;;;4.00;99.90;;;;;;4874605;29;20212;-93
2022/02/27 09:56:21;;;;;;;18.13;6.72;;;4.20;99.90;;;;;;4871696;29;20483;-93
2022/02/27 09:58:47;;;;;;;15.73;4.43;;;4.40;99.90;;;;;;4870549;29;20034;-93
2022/02/27 10:01:14;;;;;;;12.50;4.18;;;4.60;99.90;;;;;;4868854;29;20061;-92
2022/02/27 10:03:41;;;;;;;21.67;4.38;;;4.80;99.90;;;;;;4875355;29;20045;-93
2022/02/27 10:06:09;;;;;;;12.90;3.47;;;5.00;99.90;;;;;;4872691;29;20028;-91
2022/02/27 10:08:40;;;;;;;17.70;3.97;;;5.20;99.90;;;;;;4866847;29;20100;-94
2022/02/27 10:11:07;;;;;;;15.40;5.07;;;5.30;99.90;;;;;;4868022;29;20033;-93
2022/02/27 10:13:47;;;;;;;20.50;4.60;;;5.50;99.90;;;;;;4867039;29;20053;-93
2022/02/27 10:16:22;;;;;;;14.95;4.18;;;5.70;99.90;;;;;;4868696;29;20030;-93
2022/02/27 10:19:06;;;;;;;15.10;3.80;;;5.90;99.90;;;;;;4866305;29;20053;-93
2022/02/27 10:21:36;;;;;;;11.45;3.75;;;6.00;99.90;;;;;;4865824;29;20056;-93
2022/02/27 10:24:04;;;;;;;11.90;3.88;;;6.20;99.90;;;;;;4865426;29;20059;-94
2022/02/27 10:26:33;;;;;;;11.80;4.10;;;6.40;99.90;;;;;;4867265;29;20052;-91
2022/02/27 10:29:21;;;;;;;15.30;4.20;;;6.50;99.90;;;;;;4879186;29;20033;-91
2022/02/27 10:31:52;;;;;;;10.77;2.97;;;6.70;99.90;;;;;;4877078;29;20021;-93
2022/02/27 10:34:32;;;;;;;17.00;4.38;;;6.90;99.90;;;;;;4875709;29;20037;-94
2022/02/27 10:37:06;;;;;;;9.90;3.53;;;7.00;99.90;;;;;;4873576;29;20040;-93
2022/02/27 10:39:44;;;;;;;14.80;3.60;;;7.20;99.90;;;;;;4873423;29;20040;-93
2022/02/27 10:42:25;;;;;;;11.45;3.42;;;7.40;99.90;;;;;;4869529;29;20568;-94
2022/02/27 10:44:58;;;;;;;9.43;3.95;;;7.50;99.30;;;;;;4868972;29;20046;-95
2022/02/27 10:47:31;;;;;;;11.30;3.90;;;7.70;98.50;;;;;;4866425;29;20029;-94
2022/02/27 10:50:19;;;;;;;11.88;3.85;;;7.70;97.30;;;;;;4866179;29;20029;-92
2022/02/27 10:52:46;;;;;;;19.45;4.88;;;7.90;97.00;;;;;;4857766;29;20026;-94
2022/02/27 10:55:13;;;;;;;12.52;4.50;;;8.10;95.90;;;;;;4866323;29;20029;-93
2022/02/27 10:57:46;;;;;;;14.07;4.30;;;8.20;95.60;;;;;;4866868;29;20120;-91
2022/02/27 11:00:20;;;;;;;12.25;3.58;;;8.30;95.30;;;;;;4850898;29;20093;-92
2022/02/27 11:02:52;;;;;;;15.82;3.72;;;8.40;94.60;;;;;;4867340;29;20116;-92
2022/02/27 11:05:24;;;;;;;10.68;3.70;;;8.60;93.40;;;;;;4869574;29;20057;-93
2022/02/27 11:07:55;;;;;;;10.75;4.13;;;8.70;92.60;;;;;;4869250;29;20053;-92
2022/02/27 11:10:23;;;;;;;11.40;3.15;;;8.90;92.70;;;;;;4849981;29;20037;-93
2022/02/27 11:12:49;;;;;;;12.10;3.25;;;9.00;92.10;;;;;;4863926;29;20110;-93
2022/02/27 11:15:19;;;;;;;12.20;4.05;;;9.20;91.50;;;;;;4863730;29;20093;-93
2022/02/27 11:17:46;;;;;;;12.52;4.10;;;9.30;90.60;;;;;;4864634;29;20104;-93
2022/02/27 11:20:14;;;;;;;10.50;3.47;;;9.40;90.30;;;;;;4863867;29;20030;-92
2022/02/27 11:22:40;;;;;;;13.25;4.18;;;9.40;89.70;;;;;;4864141;29;20033;-93
2022/02/27 11:25:08;;;;;;;12.02;3.50;;;9.50;88.60;;;;;;4877513;29;20041;-94
2022/02/27 11:28:03;;;;;;;12.10;3.60;;;9.60;87.90;;;;;;4881529;29;20037;-92
2022/02/27 11:30:31;;;;;;;16.33;3.80;;;9.60;87.00;;;;;;4883333;29;20054;-93
2022/02/27 11:33:05;;;;;;;8.70;3.28;;;9.80;86.90;;;;;;4883486;29;20029;-94
2022/02/27 11:35:47;;;;;;;18.75;3.58;;;9.90;85.90;;;;;;4867802;29;20056;-93
2022/02/27 11:38:28;;;;;;;13.18;4.00;;;10.00;85.40;;;;;;4882286;29;20029;-94
2022/02/27 11:40:56;;;;;;;10.75;3.50;;;10.20;84.50;;;;;;4867746;29;20034;-93
2022/02/27 11:43:53;;;;;;;15.27;3.78;;;10.40;83.60;;;;;;4847757;29;20037;-93
2022/02/27 11:46:37;;;;;;;11.57;4.65;;;10.50;82.40;;;;;;4866947;29;20068;-92
2022/02/27 11:49:11;;;;;;;10.48;3.58;;;10.60;81.70;;;;;;4863158;29;20033;-92
2022/02/27 11:51:36;;;;;;;11.43;4.07;;;10.70;81.70;;;;;;4866207;29;20037;-93
2022/02/27 11:54:36;;;;;;;10.70;3.88;;;10.80;81.20;;;;;;4867029;29;20582;-92
2022/02/27 11:57:09;;;;;;;11.07;3.70;;;11.00;80.90;;;;;;4866122;29;20068;-92
2022/02/27 12:00:07;;;;;;;10.82;4.10;;;11.10;79.80;;;;;;4861981;29;20029;-93
2022/02/27 12:02:39;;;;;;;15.77;3.35;;;11.30;79.50;;;;;;4861804;29;20036;-95
2022/02/27 12:05:08;;;;;;;12.48;3.60;;;11.40;78.10;;;;;;4862024;29;20022;-92
2022/02/27 12:08:10;;;;;;;10.38;2.92;;;11.60;77.00;;;;;;4866781;29;20373;-94
2022/02/27 12:10:44;;;;;;;10.20;3.35;;;11.50;76.40;;;;;;4845558;29;20149;-94
2022/02/27 12:13:30;;;;;;;9.05;3.25;;;11.60;76.70;;;;;;4844884;29;20102;-93
2022/02/27 12:16:13;;;;;;;14.45;3.95;;;11.70;76.50;;;;;;4845045;29;20100;-96
2022/02/27 12:18:56;;;;;;;9.40;3.28;;;11.80;75.30;;;;;;4844951;29;20037;-93
2022/02/27 12:21:31;;;;;;;10.75;3.33;;;11.80;75.00;;;;;;4856093;29;20030;-94
2022/02/27 12:24:05;;;;;;;10.65;3.60;;;11.90;75.40;;;;;;4854681;29;20034;-93
2022/02/27 12:26:42;;;;;;;10.50;3.30;;;12.10;75.40;;;;;;4846651;29;20037;-94
2022/02/27 12:29:18;;;;;;;12.98;3.22;;;12.30;74.30;;;;;;4845844;29;20038;-95
2022/02/27 12:31:44;;;;;;;7.85;3.47;;;12.40;73.60;;;;;;4847802;29;20082;-94
2022/02/27 12:34:33;;;;;;;10.18;3.40;;;12.50;73.60;;;;;;4850838;29;20029;-94
2022/02/27 12:37:00;;;;;;;16.40;3.78;;;12.70;73.80;;;;;;4850333;29;20026;-95
2022/02/27 12:39:31;;;;;;;10.48;2.90;;;13.00;73.40;;;;;;4847826;29;20070;-94
2022/02/27 12:41:57;;;;;;;10.73;3.95;;;13.10;72.50;;;;;;4849036;29;20037;-95
2022/02/27 12:44:32;;;;;;;10.63;3.80;;;13.30;71.70;;;;;;4853970;29;20037;-94
2022/02/27 12:47:00;;;;;;;11.48;3.22;;;13.30;71.30;;;;;;4864725;29;20449;-95
2022/02/27 12:52:16;;;;;;;10.38;4.03;;;13.60;70.30;;;;;;4866477;29;20101;-94
2022/02/27 12:54:44;;;;;;;14.55;3.45;;;13.60;69.90;;;;;;4864691;29;20093;-94
2022/02/27 12:57:10;;;;;;;9.73;3.67;;;13.60;69.60;;;;;;4864973;29;20076;-95
2022/02/27 12:59:40;;;;;;;12.80;4.60;;;13.50;69.10;;;;;;4864682;29;20494;-95